Cheyenne — WDE9553 — position and weather

sailwx.info

Track history (hours):
 
Tides and Currents Weather Stations Pressure Air Temp Water Temp Dewpoint Dewpoint Depression Visibility Wind Speed Wind Dir Waves Ship Positions

Cheyenne

Owner: DMC MARINE, LLC, HILLSIDE, NJ. More information available from US FCC via Universal Licensing System and Coast Guard Vessel Documentation Center.

Last reported at 2015-Mar-14 05:13 UTC. Time now 2015-Apr-01 09:27 UTC.
Position N 40°42' W 074°09'.
Warning: this ship's position is 18 days out of date.

Length 29 m; draft 4 m.

Type: Towing. MMSI: 367418570.

Date/timePositionNaut miles runAvg speedWind from/ knotsBaromVisibWave heightAir tempDewpointWater temp
2015-Mar-14 05:13N 40°42' W 074°09'0 0.0
2015-Mar-14 04:13N 40°42' W 074°09'4 1.3
2015-Mar-14 01:28N 40°39' W 074°07'3 3.3
2015-Mar-14 00:33N 40°41' W 074°05'5 4.6
2015-Mar-13 23:33N 40°43' W 073°59'11 2.5
2015-Mar-13 19:24N 40°48' W 073°47'8 8.3
2015-Mar-13 18:25N 40°46' W 073°57'7 8.1
2015-Mar-13 17:33N 40°41' W 074°04'1 1.0
2015-Mar-13 16:33N 40°41' W 074°05'0 0.0
2015-Mar-13 15:33N 40°41' W 074°05'0 0.0
2015-Mar-13 14:33N 40°41' W 074°05'0 0.0
2015-Mar-13 13:33N 40°41' W 074°05'0 0.0
2015-Mar-13 12:33N 40°41' W 074°05'0 0.0
2015-Mar-13 11:33N 40°41' W 074°05'0 0.0
2015-Mar-13 10:33N 40°41' W 074°05'0 0.0
2015-Mar-13 09:33N 40°41' W 074°05'0 0.0
2015-Mar-13 08:33N 40°41' W 074°05'0 0.0
2015-Mar-13 07:33N 40°41' W 074°05'0 0.0
2015-Mar-13 06:33N 40°41' W 074°05'0 0.0
2015-Mar-13 05:33N 40°41' W 074°05'0 0.0
2015-Mar-13 04:33N 40°41' W 074°05'0 0.0
2015-Mar-13 03:33N 40°41' W 074°05'0 0.0
2015-Mar-13 02:33N 40°41' W 074°05'0 0.0
2015-Mar-13 01:33N 40°41' W 074°05'0 0.0
2015-Mar-13 00:33N 40°41' W 074°05'0 0.0
2015-Mar-12 23:33N 40°41' W 074°05'0 0.0
2015-Mar-12 22:33N 40°41' W 074°05'0 0.0
2015-Mar-12 21:33N 40°41' W 074°05'0 0.0
2015-Mar-12 20:33N 40°41' W 074°05'0 0.0
2015-Mar-12 19:33N 40°41' W 074°05'0 0.0
2015-Mar-12 18:33N 40°41' W 074°05'0 0.2
2015-Mar-12 17:33N 40°41' W 074°04'4 3.5
2015-Mar-12 16:33N 40°40' W 073°60'2 2.4
2015-Mar-12 15:33N 40°40' W 074°03'2 1.6
2015-Mar-12 14:33N 40°41' W 074°05'0 0.0
2015-Mar-12 13:33N 40°41' W 074°05'0 0.0
2015-Mar-12 12:33N 40°41' W 074°05'0 0.0
2015-Mar-12 11:33N 40°41' W 074°05'0 0.0
2015-Mar-12 10:33N 40°41' W 074°05'0 0.0
2015-Mar-12 09:33N 40°41' W 074°05'0 0.0
2015-Mar-12 08:33N 40°41' W 074°05'0 0.0
2015-Mar-12 07:33N 40°41' W 074°05'0 0.0
2015-Mar-12 06:33N 40°41' W 074°05'0 0.0
2015-Mar-12 05:33N 40°41' W 074°05'0 0.0
2015-Mar-12 04:33N 40°41' W 074°05'1 1.0
2015-Mar-12 03:33N 40°41' W 074°04'4 3.7
2015-Mar-12 02:33N 40°41' W 074°09'0 0.2
2015-Mar-12 01:24N 40°41' W 074°08'2 2.9
2015-Mar-12 00:32N 40°39' W 074°07'3 3.3
2015-Mar-11 23:33N 40°41' W 074°04'4 4.1
2015-Mar-11 22:33N 40°43' W 073°59'13 3.9
2015-Mar-11 19:13N 40°53' W 073°49'11 4.1
2015-Mar-11 16:32N 40°44' W 073°58'6 6.0
2015-Mar-11 15:33N 40°41' W 074°05'0 0.1
2015-Mar-11 14:33N 40°41' W 074°05'0 0.0
2015-Mar-11 13:33N 40°41' W 074°05'0 0.0
2015-Mar-11 12:30N 40°41' W 074°05'0 0.0
2015-Mar-11 11:33N 40°41' W 074°05'0 0.0
2015-Mar-11 10:33N 40°41' W 074°05'0 0.0
2015-Mar-11 09:33N 40°41' W 074°05'0 0.0
2015-Mar-11 08:33N 40°41' W 074°05'0 0.0
2015-Mar-11 07:24N 40°41' W 074°05'0 0.0
2015-Mar-11 06:33N 40°41' W 074°05'0 0.0
2015-Mar-11 05:33N 40°41' W 074°05'0 0.0
2015-Mar-11 04:33N 40°41' W 074°05'0 0.0
2015-Mar-11 03:33N 40°41' W 074°05'0 0.0
2015-Mar-11 02:33N 40°41' W 074°05'0 0.0
2015-Mar-11 01:29N 40°41' W 074°05'0 0.0
2015-Mar-11 00:33N 40°41' W 074°05'0 0.3
2015-Mar-10 23:33N 40°41' W 074°04'0 0.0
2015-Mar-10 22:33N 40°41' W 074°04'3 2.6
2015-Mar-10 21:29N 40°41' W 074°08'1 0.7
2015-Mar-10 20:33N 40°41' W 074°09'3 3.4
2015-Mar-10 19:33N 40°39' W 074°05'8 6.4
2015-Mar-10 18:20N 40°44' W 073°57'2 2.3
2015-Mar-10 17:33N 40°43' W 073°58'5 5.0
2015-Mar-10 16:33N 40°41' W 074°04'0 0.4
2015-Mar-10 15:33N 40°41' W 074°04'3 3.1
2015-Mar-10 14:33N 40°40' W 073°60'3 3.4
2015-Mar-10 13:32N 40°41' W 074°04'0 0.0
2015-Mar-10 12:33N 40°41' W 074°04'0 0.2
2015-Mar-10 11:33N 40°41' W 074°05'0 0.0
2015-Mar-10 10:33N 40°41' W 074°05'0 0.0
2015-Mar-10 09:33N 40°41' W 074°05'0 0.0
2015-Mar-10 08:32N 40°41' W 074°05'0 0.0
2015-Mar-10 07:32N 40°41' W 074°05'0 0.0
2015-Mar-10 06:33N 40°41' W 074°05'0 0.0
2015-Mar-10 05:33N 40°41' W 074°05'0 0.0
2015-Mar-10 04:32N 40°41' W 074°05'0 0.0
2015-Mar-10 03:33N 40°41' W 074°05'0 0.0
2015-Mar-10 02:33N 40°41' W 074°05'0 0.0
2015-Mar-10 01:33N 40°41' W 074°05'0 0.0
2015-Mar-10 00:33N 40°41' W 074°05'0 0.0
2015-Mar-09 23:33N 40°41' W 074°05'0 0.0
2015-Mar-09 22:33N 40°41' W 074°05'1 1.2
2015-Mar-09 21:33N 40°40' W 074°03'5 5.4
2015-Mar-09 20:33N 40°44' W 073°58'1 0.2
2015-Mar-09 14:33N 40°45' W 073°58'7 6.7
2015-Mar-09 13:33N 40°41' W 074°04'1 0.8
2015-Mar-09 12:33N 40°41' W 074°05'0 0.0
2015-Mar-09 11:33N 40°41' W 074°05'0 0.0
2015-Mar-09 10:33N 40°41' W 074°05'0 0.0
2015-Mar-09 09:33N 40°41' W 074°05'0 0.0
2015-Mar-09 08:33N 40°41' W 074°05'0 0.0
2015-Mar-09 07:33N 40°41' W 074°05'0 0.0
2015-Mar-09 06:33N 40°41' W 074°05'0 0.0
2015-Mar-09 05:32N 40°41' W 074°05'0 0.0
2015-Mar-09 04:32N 40°41' W 074°05'0 0.0
2015-Mar-09 03:24N 40°41' W 074°05'0 0.0
2015-Mar-09 02:33N 40°41' W 074°05'0 0.0
2015-Mar-09 01:33N 40°41' W 074°05'0 0.0
2015-Mar-09 00:32N 40°41' W 074°05'0 0.0
2015-Mar-08 23:33N 40°41' W 074°05'0 0.0
2015-Mar-08 22:33N 40°41' W 074°05'0 0.0
2015-Mar-08 21:33N 40°41' W 074°05'0 0.0
2015-Mar-08 20:33N 40°41' W 074°05'0 0.0
2015-Mar-08 19:33N 40°41' W 074°05'0 0.0
2015-Mar-08 18:33N 40°41' W 074°05'0 0.0
2015-Mar-08 17:33N 40°41' W 074°05'0 0.0
2015-Mar-08 16:33N 40°41' W 074°05'0 0.0
2015-Mar-08 15:33N 40°41' W 074°05'0 0.0
2015-Mar-08 14:33N 40°41' W 074°05'0 0.0
2015-Mar-08 13:33N 40°41' W 074°05'0 0.0
2015-Mar-08 12:32N 40°41' W 074°05'0 0.0
2015-Mar-08 11:33N 40°41' W 074°05'0 0.0
2015-Mar-08 10:33N 40°41' W 074°05'0 0.0
2015-Mar-08 09:33N 40°41' W 074°05'0 0.0
2015-Mar-08 08:33N 40°41' W 074°05'0 0.0
2015-Mar-08 07:33N 40°41' W 074°05'0 0.0
2015-Mar-08 06:32N 40°41' W 074°05'0 0.0
2015-Mar-08 05:28N 40°41' W 074°05'0 0.0
2015-Mar-08 04:33N 40°41' W 074°05'0 0.0
2015-Mar-08 03:33N 40°41' W 074°05'0 0.0
2015-Mar-08 02:33N 40°41' W 074°05'0 0.0
2015-Mar-08 01:33N 40°41' W 074°05'0 0.0
2015-Mar-08 00:33N 40°41' W 074°05'0 0.0
2015-Mar-07 23:32N 40°41' W 074°05'0 0.0
2015-Mar-07 22:32N 40°41' W 074°05'0 0.0
2015-Mar-07 21:33N 40°41' W 074°05'0 0.0
2015-Mar-07 20:33N 40°41' W 074°05'0 0.0
2015-Mar-07 19:32N 40°41' W 074°05'3 2.6
2015-Mar-07 18:33N 40°42' W 074°01'3 0.8
2015-Mar-07 14:31N 40°44' W 073°58'6 5.8
2015-Mar-07 13:32N 40°41' W 074°05'0 0.0
2015-Mar-07 12:33N 40°41' W 074°05'0 0.0
2015-Mar-07 11:32N 40°41' W 074°05'0 0.0
2015-Mar-07 10:21N 40°41' W 074°05'0 0.0
2015-Mar-07 09:32N 40°41' W 074°05'0 0.0
2015-Mar-07 08:32N 40°41' W 074°05'0 0.0
2015-Mar-07 07:32N 40°41' W 074°05'0 0.0
2015-Mar-07 06:32N 40°41' W 074°05'0 0.0
2015-Mar-07 05:33N 40°41' W 074°05'0 0.0
2015-Mar-07 04:30N 40°41' W 074°05'0 0.0
2015-Mar-07 03:32N 40°41' W 074°05'0 0.0
2015-Mar-07 02:33N 40°41' W 074°05'3 2.6
2015-Mar-07 01:33N 40°42' W 074°01'1 1.4
2015-Mar-07 00:31N 40°42' W 073°60'8 7.6
2015-Mar-06 23:30N 40°39' W 074°08'3 1.2
2015-Mar-06 21:21N 40°38' W 074°12'4 1.4
2015-Mar-06 18:28N 40°42' W 074°09'3 3.4
2015-Mar-06 17:32N 40°39' W 074°09'2 1.6
2015-Mar-06 16:33N 40°39' W 074°07'3 3.2
2015-Mar-06 15:34N 40°41' W 074°03'2 2.4
2015-Mar-06 14:33N 40°40' W 073°60'4 3.7
2015-Mar-06 13:33N 40°41' W 074°05'0 0.0
2015-Mar-06 12:32N 40°41' W 074°05'0 0.0
2015-Mar-06 11:32N 40°41' W 074°05'0 0.0
2015-Mar-06 10:33N 40°41' W 074°05'0 0.0
2015-Mar-06 09:30N 40°41' W 074°05'0 0.0
2015-Mar-06 08:33N 40°41' W 074°05'0 0.0
2015-Mar-06 07:31N 40°41' W 074°05'0 0.0
2015-Mar-06 06:33N 40°41' W 074°05'0 0.0
2015-Mar-06 05:33N 40°41' W 074°05'0 0.0
2015-Mar-06 04:33N 40°41' W 074°05'0 0.0
2015-Mar-06 03:33N 40°41' W 074°05'0 0.0
2015-Mar-06 02:32N 40°41' W 074°05'0 0.0
2015-Mar-06 01:33N 40°41' W 074°05'0 0.0
2015-Mar-06 00:32N 40°41' W 074°05'0 0.0
2015-Mar-05 23:33N 40°41' W 074°05'0 0.0
2015-Mar-05 22:33N 40°41' W 074°05'0 0.0
2015-Mar-05 21:33N 40°41' W 074°05'0 0.0
2015-Mar-05 20:33N 40°41' W 074°05'0 0.0
2015-Mar-05 19:32N 40°41' W 074°05'0 0.0
2015-Mar-05 18:33N 40°41' W 074°05'0 0.0
2015-Mar-05 17:33N 40°41' W 074°05'0 0.0
2015-Mar-05 16:33N 40°41' W 074°05'0 0.0
2015-Mar-05 15:33N 40°41' W 074°05'0 0.0
2015-Mar-05 14:33N 40°41' W 074°05'0 0.0
2015-Mar-05 13:33N 40°41' W 074°05'0 0.0
2015-Mar-05 12:33N 40°41' W 074°05'0 0.0
2015-Mar-05 11:33N 40°41' W 074°05'0 0.0
2015-Mar-05 10:26N 40°41' W 074°05'0 0.0
2015-Mar-05 09:33N 40°41' W 074°05'0 0.0
2015-Mar-05 08:33N 40°41' W 074°05'0 0.0
2015-Mar-05 07:33N 40°41' W 074°05'0 0.0
2015-Mar-05 06:33N 40°41' W 074°05'0 0.0
2015-Mar-05 05:32N 40°41' W 074°05'0 0.0
2015-Mar-05 04:33N 40°41' W 074°05'0 0.0
2015-Mar-05 03:33N 40°41' W 074°05'0 0.0
2015-Mar-05 02:33N 40°41' W 074°05'0 0.0
2015-Mar-05 01:33N 40°41' W 074°05'1 0.6
2015-Mar-05 00:33N 40°41' W 074°04'3 3.2
2015-Mar-04 23:33N 40°40' W 073°60'4 3.7
2015-Mar-04 22:34N 40°41' W 074°05'0 0.0
2015-Mar-04 21:33N 40°41' W 074°05'0 0.0
2015-Mar-04 20:33N 40°41' W 074°05'0 0.0
2015-Mar-04 19:33N 40°41' W 074°05'0 0.0
2015-Mar-04 18:33N 40°41' W 074°05'1 0.8
2015-Mar-04 17:33N 40°41' W 074°04'5 5.2
2015-Mar-04 16:33N 40°44' W 073°58'1 1.2
2015-Mar-04 15:29N 40°44' W 073°57'2 2.7
2015-Mar-04 14:33N 40°42' W 073°59'4 4.4
2015-Mar-04 13:33N 40°41' W 074°05'0 0.1
2015-Mar-04 12:32N 40°41' W 074°05'0 0.0
2015-Mar-04 11:33N 40°41' W 074°05'0 0.0
2015-Mar-04 10:33N 40°41' W 074°05'0 0.0
2015-Mar-04 09:33N 40°41' W 074°05'0 0.0
2015-Mar-04 08:33N 40°41' W 074°05'0 0.0
2015-Mar-04 07:33N 40°41' W 074°05'0 0.0
2015-Mar-04 06:33N 40°41' W 074°05'0 0.0
2015-Mar-04 05:33N 40°41' W 074°05'  
Track history (hours):
 
Tides and Currents Weather Stations Pressure Air Temp Water Temp Dewpoint Dewpoint Depression Visibility Wind Speed Wind Dir Waves Ship Positions

Cheyenne

Owner: DMC MARINE, LLC, HILLSIDE, NJ. More information available from US FCC via Universal Licensing System and Coast Guard Vessel Documentation Center.

Last reported at 2015-Mar-14 05:13 UTC. Time now 2015-Apr-01 09:27 UTC.
Position N 40°42' W 074°09'.
Warning: this ship's position is 18 days out of date.

Length 29 m; draft 4 m.

Type: Towing. MMSI: 367418570.

Date/timePositionNaut miles runAvg speedWind from/ knotsBaromVisibWave heightAir tempDewpointWater temp
2015-Mar-14 05:13N 40°42' W 074°09'0 0.0
2015-Mar-14 04:13N 40°42' W 074°09'4 1.3
2015-Mar-14 01:28N 40°39' W 074°07'3 3.3
2015-Mar-14 00:33N 40°41' W 074°05'5 4.6
2015-Mar-13 23:33N 40°43' W 073°59'11 2.5
2015-Mar-13 19:24N 40°48' W 073°47'8 8.3
2015-Mar-13 18:25N 40°46' W 073°57'7 8.1
2015-Mar-13 17:33N 40°41' W 074°04'1 1.0
2015-Mar-13 16:33N 40°41' W 074°05'0 0.0
2015-Mar-13 15:33N 40°41' W 074°05'0 0.0
2015-Mar-13 14:33N 40°41' W 074°05'0 0.0
2015-Mar-13 13:33N 40°41' W 074°05'0 0.0
2015-Mar-13 12:33N 40°41' W 074°05'0 0.0
2015-Mar-13 11:33N 40°41' W 074°05'0 0.0
2015-Mar-13 10:33N 40°41' W 074°05'0 0.0
2015-Mar-13 09:33N 40°41' W 074°05'0 0.0
2015-Mar-13 08:33N 40°41' W 074°05'0 0.0
2015-Mar-13 07:33N 40°41' W 074°05'0 0.0
2015-Mar-13 06:33N 40°41' W 074°05'0 0.0
2015-Mar-13 05:33N 40°41' W 074°05'0 0.0
2015-Mar-13 04:33N 40°41' W 074°05'0 0.0
2015-Mar-13 03:33N 40°41' W 074°05'0 0.0
2015-Mar-13 02:33N 40°41' W 074°05'0 0.0
2015-Mar-13 01:33N 40°41' W 074°05'0 0.0
2015-Mar-13 00:33N 40°41' W 074°05'0 0.0
2015-Mar-12 23:33N 40°41' W 074°05'0 0.0
2015-Mar-12 22:33N 40°41' W 074°05'0 0.0
2015-Mar-12 21:33N 40°41' W 074°05'0 0.0
2015-Mar-12 20:33N 40°41' W 074°05'0 0.0
2015-Mar-12 19:33N 40°41' W 074°05'0 0.0
2015-Mar-12 18:33N 40°41' W 074°05'0 0.2
2015-Mar-12 17:33N 40°41' W 074°04'4 3.5
2015-Mar-12 16:33N 40°40' W 073°60'2 2.4
2015-Mar-12 15:33N 40°40' W 074°03'2 1.6
2015-Mar-12 14:33N 40°41' W 074°05'0 0.0
2015-Mar-12 13:33N 40°41' W 074°05'0 0.0
2015-Mar-12 12:33N 40°41' W 074°05'0 0.0
2015-Mar-12 11:33N 40°41' W 074°05'0 0.0
2015-Mar-12 10:33N 40°41' W 074°05'0 0.0
2015-Mar-12 09:33N 40°41' W 074°05'0 0.0
2015-Mar-12 08:33N 40°41' W 074°05'0 0.0
2015-Mar-12 07:33N 40°41' W 074°05'0 0.0
2015-Mar-12 06:33N 40°41' W 074°05'0 0.0
2015-Mar-12 05:33N 40°41' W 074°05'0 0.0
2015-Mar-12 04:33N 40°41' W 074°05'1 1.0
2015-Mar-12 03:33N 40°41' W 074°04'4 3.7
2015-Mar-12 02:33N 40°41' W 074°09'0 0.2
2015-Mar-12 01:24N 40°41' W 074°08'2 2.9
2015-Mar-12 00:32N 40°39' W 074°07'3 3.3
2015-Mar-11 23:33N 40°41' W 074°04'4 4.1
2015-Mar-11 22:33N 40°43' W 073°59'13 3.9
2015-Mar-11 19:13N 40°53' W 073°49'11 4.1
2015-Mar-11 16:32N 40°44' W 073°58'6 6.0
2015-Mar-11 15:33N 40°41' W 074°05'0 0.1
2015-Mar-11 14:33N 40°41' W 074°05'0 0.0
2015-Mar-11 13:33N 40°41' W 074°05'0 0.0
2015-Mar-11 12:30N 40°41' W 074°05'0 0.0
2015-Mar-11 11:33N 40°41' W 074°05'0 0.0
2015-Mar-11 10:33N 40°41' W 074°05'0 0.0
2015-Mar-11 09:33N 40°41' W 074°05'0 0.0
2015-Mar-11 08:33N 40°41' W 074°05'0 0.0
2015-Mar-11 07:24N 40°41' W 074°05'0 0.0
2015-Mar-11 06:33N 40°41' W 074°05'0 0.0
2015-Mar-11 05:33N 40°41' W 074°05'0 0.0
2015-Mar-11 04:33N 40°41' W 074°05'0 0.0
2015-Mar-11 03:33N 40°41' W 074°05'0 0.0
2015-Mar-11 02:33N 40°41' W 074°05'0 0.0
2015-Mar-11 01:29N 40°41' W 074°05'0 0.0
2015-Mar-11 00:33N 40°41' W 074°05'0 0.3
2015-Mar-10 23:33N 40°41' W 074°04'0 0.0
2015-Mar-10 22:33N 40°41' W 074°04'3 2.6
2015-Mar-10 21:29N 40°41' W 074°08'1 0.7
2015-Mar-10 20:33N 40°41' W 074°09'3 3.4
2015-Mar-10 19:33N 40°39' W 074°05'8 6.4
2015-Mar-10 18:20N 40°44' W 073°57'2 2.3
2015-Mar-10 17:33N 40°43' W 073°58'5 5.0
2015-Mar-10 16:33N 40°41' W 074°04'0 0.4
2015-Mar-10 15:33N 40°41' W 074°04'3 3.1
2015-Mar-10 14:33N 40°40' W 073°60'3 3.4
2015-Mar-10 13:32N 40°41' W 074°04'0 0.0
2015-Mar-10 12:33N 40°41' W 074°04'0 0.2
2015-Mar-10 11:33N 40°41' W 074°05'0 0.0
2015-Mar-10 10:33N 40°41' W 074°05'0 0.0
2015-Mar-10 09:33N 40°41' W 074°05'0 0.0
2015-Mar-10 08:32N 40°41' W 074°05'0 0.0
2015-Mar-10 07:32N 40°41' W 074°05'0 0.0
2015-Mar-10 06:33N 40°41' W 074°05'0 0.0
2015-Mar-10 05:33N 40°41' W 074°05'0 0.0
2015-Mar-10 04:32N 40°41' W 074°05'0 0.0
2015-Mar-10 03:33N 40°41' W 074°05'0 0.0
2015-Mar-10 02:33N 40°41' W 074°05'0 0.0
2015-Mar-10 01:33N 40°41' W 074°05'0 0.0
2015-Mar-10 00:33N 40°41' W 074°05'0 0.0
2015-Mar-09 23:33N 40°41' W 074°05'0 0.0
2015-Mar-09 22:33N 40°41' W 074°05'1 1.2
2015-Mar-09 21:33N 40°40' W 074°03'5 5.4
2015-Mar-09 20:33N 40°44' W 073°58'1 0.2
2015-Mar-09 14:33N 40°45' W 073°58'7 6.7
2015-Mar-09 13:33N 40°41' W 074°04'1 0.8
2015-Mar-09 12:33N 40°41' W 074°05'0 0.0
2015-Mar-09 11:33N 40°41' W 074°05'0 0.0
2015-Mar-09 10:33N 40°41' W 074°05'0 0.0
2015-Mar-09 09:33N 40°41' W 074°05'0 0.0
2015-Mar-09 08:33N 40°41' W 074°05'0 0.0
2015-Mar-09 07:33N 40°41' W 074°05'0 0.0
2015-Mar-09 06:33N 40°41' W 074°05'0 0.0
2015-Mar-09 05:32N 40°41' W 074°05'0 0.0
2015-Mar-09 04:32N 40°41' W 074°05'0 0.0
2015-Mar-09 03:24N 40°41' W 074°05'0 0.0
2015-Mar-09 02:33N 40°41' W 074°05'0 0.0
2015-Mar-09 01:33N 40°41' W 074°05'0 0.0
2015-Mar-09 00:32N 40°41' W 074°05'0 0.0
2015-Mar-08 23:33N 40°41' W 074°05'0 0.0
2015-Mar-08 22:33N 40°41' W 074°05'0 0.0
2015-Mar-08 21:33N 40°41' W 074°05'0 0.0
2015-Mar-08 20:33N 40°41' W 074°05'0 0.0
2015-Mar-08 19:33N 40°41' W 074°05'0 0.0
2015-Mar-08 18:33N 40°41' W 074°05'0 0.0
2015-Mar-08 17:33N 40°41' W 074°05'0 0.0
2015-Mar-08 16:33N 40°41' W 074°05'0 0.0
2015-Mar-08 15:33N 40°41' W 074°05'0 0.0
2015-Mar-08 14:33N 40°41' W 074°05'0 0.0
2015-Mar-08 13:33N 40°41' W 074°05'0 0.0
2015-Mar-08 12:32N 40°41' W 074°05'0 0.0
2015-Mar-08 11:33N 40°41' W 074°05'0 0.0
2015-Mar-08 10:33N 40°41' W 074°05'0 0.0
2015-Mar-08 09:33N 40°41' W 074°05'0 0.0
2015-Mar-08 08:33N 40°41' W 074°05'0 0.0
2015-Mar-08 07:33N 40°41' W 074°05'0 0.0
2015-Mar-08 06:32N 40°41' W 074°05'0 0.0
2015-Mar-08 05:28N 40°41' W 074°05'0 0.0
2015-Mar-08 04:33N 40°41' W 074°05'0 0.0
2015-Mar-08 03:33N 40°41' W 074°05'0 0.0
2015-Mar-08 02:33N 40°41' W 074°05'0 0.0
2015-Mar-08 01:33N 40°41' W 074°05'0 0.0
2015-Mar-08 00:33N 40°41' W 074°05'0 0.0
2015-Mar-07 23:32N 40°41' W 074°05'0 0.0
2015-Mar-07 22:32N 40°41' W 074°05'0 0.0
2015-Mar-07 21:33N 40°41' W 074°05'0 0.0
2015-Mar-07 20:33N 40°41' W 074°05'0 0.0
2015-Mar-07 19:32N 40°41' W 074°05'3 2.6
2015-Mar-07 18:33N 40°42' W 074°01'3 0.8
2015-Mar-07 14:31N 40°44' W 073°58'6 5.8
2015-Mar-07 13:32N 40°41' W 074°05'0 0.0
2015-Mar-07 12:33N 40°41' W 074°05'0 0.0
2015-Mar-07 11:32N 40°41' W 074°05'0 0.0
2015-Mar-07 10:21N 40°41' W 074°05'0 0.0
2015-Mar-07 09:32N 40°41' W 074°05'0 0.0
2015-Mar-07 08:32N 40°41' W 074°05'0 0.0
2015-Mar-07 07:32N 40°41' W 074°05'0 0.0
2015-Mar-07 06:32N 40°41' W 074°05'0 0.0
2015-Mar-07 05:33N 40°41' W 074°05'0 0.0
2015-Mar-07 04:30N 40°41' W 074°05'0 0.0
2015-Mar-07 03:32N 40°41' W 074°05'0 0.0
2015-Mar-07 02:33N 40°41' W 074°05'3 2.6
2015-Mar-07 01:33N 40°42' W 074°01'1 1.4
2015-Mar-07 00:31N 40°42' W 073°60'8 7.6
2015-Mar-06 23:30N 40°39' W 074°08'3 1.2
2015-Mar-06 21:21N 40°38' W 074°12'4 1.4
2015-Mar-06 18:28N 40°42' W 074°09'3 3.4
2015-Mar-06 17:32N 40°39' W 074°09'2 1.6
2015-Mar-06 16:33N 40°39' W 074°07'3 3.2
2015-Mar-06 15:34N 40°41' W 074°03'2 2.4
2015-Mar-06 14:33N 40°40' W 073°60'4 3.7
2015-Mar-06 13:33N 40°41' W 074°05'0 0.0
2015-Mar-06 12:32N 40°41' W 074°05'0 0.0
2015-Mar-06 11:32N 40°41' W 074°05'0 0.0
2015-Mar-06 10:33N 40°41' W 074°05'0 0.0
2015-Mar-06 09:30N 40°41' W 074°05'0 0.0
2015-Mar-06 08:33N 40°41' W 074°05'0 0.0
2015-Mar-06 07:31N 40°41' W 074°05'0 0.0
2015-Mar-06 06:33N 40°41' W 074°05'0 0.0
2015-Mar-06 05:33N 40°41' W 074°05'0 0.0
2015-Mar-06 04:33N 40°41' W 074°05'0 0.0
2015-Mar-06 03:33N 40°41' W 074°05'0 0.0
2015-Mar-06 02:32N 40°41' W 074°05'0 0.0
2015-Mar-06 01:33N 40°41' W 074°05'0 0.0
2015-Mar-06 00:32N 40°41' W 074°05'0 0.0
2015-Mar-05 23:33N 40°41' W 074°05'0 0.0
2015-Mar-05 22:33N 40°41' W 074°05'0 0.0
2015-Mar-05 21:33N 40°41' W 074°05'0 0.0
2015-Mar-05 20:33N 40°41' W 074°05'0 0.0
2015-Mar-05 19:32N 40°41' W 074°05'0 0.0
2015-Mar-05 18:33N 40°41' W 074°05'0 0.0
2015-Mar-05 17:33N 40°41' W 074°05'0 0.0
2015-Mar-05 16:33N 40°41' W 074°05'0 0.0
2015-Mar-05 15:33N 40°41' W 074°05'0 0.0
2015-Mar-05 14:33N 40°41' W 074°05'0 0.0
2015-Mar-05 13:33N 40°41' W 074°05'0 0.0
2015-Mar-05 12:33N 40°41' W 074°05'0 0.0
2015-Mar-05 11:33N 40°41' W 074°05'0 0.0
2015-Mar-05 10:26N 40°41' W 074°05'0 0.0
2015-Mar-05 09:33N 40°41' W 074°05'0 0.0
2015-Mar-05 08:33N 40°41' W 074°05'0 0.0
2015-Mar-05 07:33N 40°41' W 074°05'0 0.0
2015-Mar-05 06:33N 40°41' W 074°05'0 0.0
2015-Mar-05 05:32N 40°41' W 074°05'0 0.0
2015-Mar-05 04:33N 40°41' W 074°05'0 0.0
2015-Mar-05 03:33N 40°41' W 074°05'0 0.0
2015-Mar-05 02:33N 40°41' W 074°05'0 0.0
2015-Mar-05 01:33N 40°41' W 074°05'1 0.6
2015-Mar-05 00:33N 40°41' W 074°04'3 3.2
2015-Mar-04 23:33N 40°40' W 073°60'4 3.7
2015-Mar-04 22:34N 40°41' W 074°05'0 0.0
2015-Mar-04 21:33N 40°41' W 074°05'0 0.0
2015-Mar-04 20:33N 40°41' W 074°05'0 0.0
2015-Mar-04 19:33N 40°41' W 074°05'0 0.0
2015-Mar-04 18:33N 40°41' W 074°05'1 0.8
2015-Mar-04 17:33N 40°41' W 074°04'5 5.2
2015-Mar-04 16:33N 40°44' W 073°58'1 1.2
2015-Mar-04 15:29N 40°44' W 073°57'2 2.7
2015-Mar-04 14:33N 40°42' W 073°59'4 4.4
2015-Mar-04 13:33N 40°41' W 074°05'0 0.1
2015-Mar-04 12:32N 40°41' W 074°05'0 0.0
2015-Mar-04 11:33N 40°41' W 074°05'0 0.0
2015-Mar-04 10:33N 40°41' W 074°05'0 0.0
2015-Mar-04 09:33N 40°41' W 074°05'0 0.0
2015-Mar-04 08:33N 40°41' W 074°05'0 0.0
2015-Mar-04 07:33N 40°41' W 074°05'0 0.0
2015-Mar-04 06:33N 40°41' W 074°05'0 0.0
2015-Mar-04 05:33N 40°41' W 074°05'  

Dump ship's entire track history